sensor_id;sensor_type;location;lat;lon;timestamp;pressure;altitude;pressure_sealevel;temperature;humidity
44351;BME280;62766;62.622;17.912;2023-04-28T00:02:16;100786.42;;;3.42;64.02
44351;BME280;62766;62.622;17.912;2023-04-28T00:04:44;100788.08;;;3.41;64.05
44351;BME280;62766;62.622;17.912;2023-04-28T00:07:13;100787.52;;;3.41;64.03
44351;BME280;62766;62.622;17.912;2023-04-28T00:09:41;100786.80;;;3.47;64.11
44351;BME280;62766;62.622;17.912;2023-04-28T00:12:09;100789.31;;;3.46;64.09
44351;BME280;62766;62.622;17.912;2023-04-28T00:14:38;100789.64;;;3.45;64.01
44351;BME280;62766;62.622;17.912;2023-04-28T00:17:06;100792.78;;;3.40;63.91
44351;BME280;62766;62.622;17.912;2023-04-28T00:19:35;100793.73;;;3.40;64.13
44351;BME280;62766;62.622;17.912;2023-04-28T00:22:03;100797.17;;;3.45;64.09
44351;BME280;62766;62.622;17.912;2023-04-28T00:24:31;100797.07;;;3.36;64.21
44351;BME280;62766;62.622;17.912;2023-04-28T00:27:00;100797.12;;;3.33;64.35
44351;BME280;62766;62.622;17.912;2023-04-28T00:29:28;100793.98;;;3.53;64.24
44351;BME280;62766;62.622;17.912;2023-04-28T00:31:56;100792.17;;;3.57;64.08
44351;BME280;62766;62.622;17.912;2023-04-28T00:34:25;100791.48;;;3.52;64.10
44351;BME280;62766;62.622;17.912;2023-04-28T00:36:53;100792.73;;;3.48;64.11
44351;BME280;62766;62.622;17.912;2023-04-28T00:39:22;100796.53;;;3.51;64.24
44351;BME280;62766;62.622;17.912;2023-04-28T00:41:50;100799.62;;;3.49;64.14
44351;BME280;62766;62.622;17.912;2023-04-28T00:44:18;100798.95;;;3.61;64.09
44351;BME280;62766;62.622;17.912;2023-04-28T00:46:47;100799.03;;;3.57;64.00
44351;BME280;62766;62.622;17.912;2023-04-28T00:49:15;100800.29;;;3.34;64.07
44351;BME280;62766;62.622;17.912;2023-04-28T00:51:44;100802.92;;;3.44;64.14
44351;BME280;62766;62.622;17.912;2023-04-28T00:54:12;100805.55;;;3.55;64.07
44351;BME280;62766;62.622;17.912;2023-04-28T00:56:41;100807.42;;;3.53;63.94
44351;BME280;62766;62.622;17.912;2023-04-28T00:59:11;100809.69;;;3.55;63.84
44351;BME280;62766;62.622;17.912;2023-04-28T01:01:39;100808.26;;;3.41;63.91
44351;BME280;62766;62.622;17.912;2023-04-28T01:04:08;100812.25;;;3.48;63.96
44351;BME280;62766;62.622;17.912;2023-04-28T01:06:36;100813.84;;;3.50;63.98
44351;BME280;62766;62.622;17.912;2023-04-28T01:09:06;100813.02;;;3.42;64.00
44351;BME280;62766;62.622;17.912;2023-04-28T01:11:34;100812.78;;;3.41;64.04
44351;BME280;62766;62.622;17.912;2023-04-28T01:14:03;100813.44;;;3.38;64.10
44351;BME280;62766;62.622;17.912;2023-04-28T01:16:32;100813.99;;;3.34;64.15
44351;BME280;62766;62.622;17.912;2023-04-28T01:19:01;100814.88;;;3.51;64.20
44351;BME280;62766;62.622;17.912;2023-04-28T01:21:30;100813.52;;;3.39;64.17
44351;BME280;62766;62.622;17.912;2023-04-28T01:23:58;100814.27;;;3.46;64.12
44351;BME280;62766;62.622;17.912;2023-04-28T01:26:27;100813.93;;;3.45;64.14
44351;BME280;62766;62.622;17.912;2023-04-28T01:28:57;100815.37;;;3.42;64.35
44351;BME280;62766;62.622;17.912;2023-04-28T01:31:25;100813.11;;;3.40;64.37
44351;BME280;62766;62.622;17.912;2023-04-28T01:33:53;100812.54;;;3.39;64.37
44351;BME280;62766;62.622;17.912;2023-04-28T01:36:22;100811.63;;;3.32;64.32
44351;BME280;62766;62.622;17.912;2023-04-28T01:38:50;100812.78;;;3.38;64.34
44351;BME280;62766;62.622;17.912;2023-04-28T01:41:19;100810.17;;;3.51;64.18
44351;BME280;62766;62.622;17.912;2023-04-28T01:43:47;100812.44;;;3.38;64.13
44351;BME280;62766;62.622;17.912;2023-04-28T01:46:15;100812.14;;;3.41;64.08
44351;BME280;62766;62.622;17.912;2023-04-28T01:48:44;100811.17;;;3.40;64.17
44351;BME280;62766;62.622;17.912;2023-04-28T01:51:12;100810.77;;;3.45;64.10
44351;BME280;62766;62.622;17.912;2023-04-28T01:53:41;100810.90;;;3.38;64.20
44351;BME280;62766;62.622;17.912;2023-04-28T01:56:09;100810.19;;;3.34;64.30
44351;BME280;62766;62.622;17.912;2023-04-28T01:58:37;100810.78;;;3.43;64.19
44351;BME280;62766;62.622;17.912;2023-04-28T02:01:06;100810.18;;;3.40;63.93
44351;BME280;62766;62.622;17.912;2023-04-28T02:03:34;100812.62;;;3.37;64.09
44351;BME280;62766;62.622;17.912;2023-04-28T02:06:03;100816.75;;;3.40;64.06
44351;BME280;62766;62.622;17.912;2023-04-28T02:08:33;100817.62;;;3.49;64.02
44351;BME280;62766;62.622;17.912;2023-04-28T02:11:01;100821.20;;;3.46;63.88
44351;BME280;62766;62.622;17.912;2023-04-28T02:13:30;100824.32;;;3.50;63.82
44351;BME280;62766;62.622;17.912;2023-04-28T02:15:59;100822.50;;;3.41;63.92
44351;BME280;62766;62.622;17.912;2023-04-28T02:18:28;100825.69;;;3.33;64.00
44351;BME280;62766;62.622;17.912;2023-04-28T02:20:57;100827.29;;;3.38;64.02
44351;BME280;62766;62.622;17.912;2023-04-28T02:23:25;100829.16;;;3.35;64.00
44351;BME280;62766;62.622;17.912;2023-04-28T02:25:59;100826.40;;;3.51;63.85
44351;BME280;62766;62.622;17.912;2023-04-28T02:28:29;100828.61;;;3.59;63.80
44351;BME280;62766;62.622;17.912;2023-04-28T02:31:06;100826.74;;;3.47;63.85
44351;BME280;62766;62.622;17.912;2023-04-28T02:33:35;100826.30;;;3.50;63.63
44351;BME280;62766;62.622;17.912;2023-04-28T02:36:04;100827.24;;;3.47;63.56
44351;BME280;62766;62.622;17.912;2023-04-28T02:38:33;100828.58;;;3.39;63.59
44351;BME280;62766;62.622;17.912;2023-04-28T02:41:03;100832.05;;;3.31;63.79
44351;BME280;62766;62.622;17.912;2023-04-28T02:43:32;100831.70;;;3.42;63.92
44351;BME280;62766;62.622;17.912;2023-04-28T02:46:01;100833.36;;;3.16;63.90
44351;BME280;62766;62.622;17.912;2023-04-28T02:48:30;100830.35;;;3.16;64.22
44351;BME280;62766;62.622;17.912;2023-04-28T02:50:58;100834.58;;;3.19;64.51
44351;BME280;62766;62.622;17.912;2023-04-28T02:53:28;100834.54;;;3.20;64.47
44351;BME280;62766;62.622;17.912;2023-04-28T02:55:57;100836.71;;;3.28;64.28
44351;BME280;62766;62.622;17.912;2023-04-28T02:58:29;100835.81;;;3.22;64.22
44351;BME280;62766;62.622;17.912;2023-04-28T03:00:58;100840.01;;;3.15;64.26
44351;BME280;62766;62.622;17.912;2023-04-28T03:03:26;100837.91;;;3.22;64.21
44351;BME280;62766;62.622;17.912;2023-04-28T03:05:56;100835.06;;;3.17;64.26
44351;BME280;62766;62.622;17.912;2023-04-28T03:08:24;100833.99;;;3.33;64.17
44351;BME280;62766;62.622;17.912;2023-04-28T03:10:53;100835.36;;;3.24;63.90
44351;BME280;62766;62.622;17.912;2023-04-28T03:13:21;100837.55;;;3.38;63.90
44351;BME280;62766;62.622;17.912;2023-04-28T03:15:50;100839.30;;;3.32;63.89
44351;BME280;62766;62.622;17.912;2023-04-28T03:18:18;100840.12;;;3.32;63.77
44351;BME280;62766;62.622;17.912;2023-04-28T03:20:46;100843.09;;;3.31;63.71
44351;BME280;62766;62.622;17.912;2023-04-28T03:23:15;100842.06;;;3.34;63.81
44351;BME280;62766;62.622;17.912;2023-04-28T03:25:43;100844.34;;;3.38;63.86
44351;BME280;62766;62.622;17.912;2023-04-28T03:28:12;100843.46;;;3.32;63.79
44351;BME280;62766;62.622;17.912;2023-04-28T03:30:40;100839.33;;;3.46;63.58
44351;BME280;62766;62.622;17.912;2023-04-28T03:33:08;100840.27;;;3.39;63.48
44351;BME280;62766;62.622;17.912;2023-04-28T03:35:37;100839.35;;;3.35;63.46
44351;BME280;62766;62.622;17.912;2023-04-28T03:38:05;100836.59;;;3.45;63.49
44351;BME280;62766;62.622;17.912;2023-04-28T03:40:34;100835.77;;;3.41;63.51
44351;BME280;62766;62.622;17.912;2023-04-28T03:43:02;100838.22;;;3.54;63.36
44351;BME280;62766;62.622;17.912;2023-04-28T03:45:30;100841.14;;;3.54;62.82
44351;BME280;62766;62.622;17.912;2023-04-28T03:47:59;100844.53;;;3.28;62.95
44351;BME280;62766;62.622;17.912;2023-04-28T03:50:28;100843.19;;;3.49;63.28
44351;BME280;62766;62.622;17.912;2023-04-28T03:52:58;100843.12;;;3.40;63.20
44351;BME280;62766;62.622;17.912;2023-04-28T03:55:27;100844.19;;;3.48;63.09
44351;BME280;62766;62.622;17.912;2023-04-28T03:57:56;100840.52;;;3.43;62.92
44351;BME280;62766;62.622;17.912;2023-04-28T04:03:21;100841.38;;;3.42;62.71
44351;BME280;62766;62.622;17.912;2023-04-28T04:05:49;100840.80;;;3.47;62.79
44351;BME280;62766;62.622;17.912;2023-04-28T04:08:17;100841.70;;;3.54;62.60
44351;BME280;62766;62.622;17.912;2023-04-28T04:10:46;100842.29;;;3.58;62.42
44351;BME280;62766;62.622;17.912;2023-04-28T04:13:14;100842.61;;;3.55;62.42
44351;BME280;62766;62.622;17.912;2023-04-28T04:15:43;100847.60;;;3.71;62.20
44351;BME280;62766;62.622;17.912;2023-04-28T04:18:11;100849.91;;;3.82;61.95
44351;BME280;62766;62.622;17.912;2023-04-28T04:20:39;100852.10;;;3.79;61.76
44351;BME280;62766;62.622;17.912;2023-04-28T04:23:08;100852.01;;;3.79;61.65
44351;BME280;62766;62.622;17.912;2023-04-28T04:25:37;100855.49;;;3.88;61.42
44351;BME280;62766;62.622;17.912;2023-04-28T04:28:05;100854.29;;;3.81;61.32
44351;BME280;62766;62.622;17.912;2023-04-28T04:30:33;100857.65;;;3.77;61.44
44351;BME280;62766;62.622;17.912;2023-04-28T04:33:01;100857.28;;;3.77;61.29
44351;BME280;62766;62.622;17.912;2023-04-28T04:35:30;100859.43;;;3.69;61.47
44351;BME280;62766;62.622;17.912;2023-04-28T04:37:59;100858.92;;;3.77;61.47
44351;BME280;62766;62.622;17.912;2023-04-28T04:40:27;100857.20;;;3.80;61.46
44351;BME280;62766;62.622;17.912;2023-04-28T04:42:55;100858.63;;;3.80;61.40
44351;BME280;62766;62.622;17.912;2023-04-28T04:45:23;100858.54;;;3.83;61.38
44351;BME280;62766;62.622;17.912;2023-04-28T04:47:52;100859.16;;;3.71;61.75
44351;BME280;62766;62.622;17.912;2023-04-28T04:50:20;100856.62;;;3.78;61.79
44351;BME280;62766;62.622;17.912;2023-04-28T04:52:49;100856.85;;;3.87;61.81
44351;BME280;62766;62.622;17.912;2023-04-28T04:55:17;100861.12;;;3.89;61.75
44351;BME280;62766;62.622;17.912;2023-04-28T04:57:45;100859.73;;;3.89;61.73
44351;BME280;62766;62.622;17.912;2023-04-28T05:00:15;100859.84;;;3.91;61.56
44351;BME280;62766;62.622;17.912;2023-04-28T05:02:44;100862.23;;;4.20;61.35
44351;BME280;62766;62.622;17.912;2023-04-28T05:05:12;100863.09;;;4.23;61.10
44351;BME280;62766;62.622;17.912;2023-04-28T05:07:41;100866.36;;;4.23;60.76
44351;BME280;62766;62.622;17.912;2023-04-28T05:10:09;100871.06;;;4.44;60.46
44351;BME280;62766;62.622;17.912;2023-04-28T05:12:37;100871.13;;;4.52;60.41
44351;BME280;62766;62.622;17.912;2023-04-28T05:15:07;100870.08;;;4.53;60.31
44351;BME280;62766;62.622;17.912;2023-04-28T05:17:36;100870.97;;;4.63;60.24
44351;BME280;62766;62.622;17.912;2023-04-28T05:20:06;100868.45;;;4.75;60.05
44351;BME280;62766;62.622;17.912;2023-04-28T05:22:34;100868.06;;;4.83;59.82
44351;BME280;62766;62.622;17.912;2023-04-28T05:25:03;100864.81;;;4.81;59.64
44351;BME280;62766;62.622;17.912;2023-04-28T05:27:31;100862.14;;;4.97;59.54
44351;BME280;62766;62.622;17.912;2023-04-28T05:30:00;100860.76;;;4.79;59.10
44351;BME280;62766;62.622;17.912;2023-04-28T05:32:28;100861.75;;;4.91;59.14
44351;BME280;62766;62.622;17.912;2023-04-28T05:34:56;100863.01;;;5.03;59.18
44351;BME280;62766;62.622;17.912;2023-04-28T05:37:25;100860.98;;;5.04;58.88
44351;BME280;62766;62.622;17.912;2023-04-28T05:39:53;100864.33;;;5.20;58.57
44351;BME280;62766;62.622;17.912;2023-04-28T05:42:21;100864.98;;;5.16;58.40
44351;BME280;62766;62.622;17.912;2023-04-28T05:44:50;100868.73;;;5.38;57.94
44351;BME280;62766;62.622;17.912;2023-04-28T05:47:18;100863.71;;;5.35;57.64
44351;BME280;62766;62.622;17.912;2023-04-28T05:49:46;100862.23;;;5.27;57.35
44351;BME280;62766;62.622;17.912;2023-04-28T05:52:15;100860.75;;;5.19;57.27
44351;BME280;62766;62.622;17.912;2023-04-28T05:54:43;100862.15;;;5.11;57.20
44351;BME280;62766;62.622;17.912;2023-04-28T05:57:12;100864.74;;;5.22;56.91
44351;BME280;62766;62.622;17.912;2023-04-28T05:59:40;100866.17;;;4.97;57.45
44351;BME280;62766;62.622;17.912;2023-04-28T06:02:08;100863.82;;;5.04;57.37
44351;BME280;62766;62.622;17.912;2023-04-28T06:04:37;100867.25;;;5.18;57.42
44351;BME280;62766;62.622;17.912;2023-04-28T06:07:06;100870.35;;;5.27;57.16
44351;BME280;62766;62.622;17.912;2023-04-28T06:09:35;100870.23;;;5.28;56.90
44351;BME280;62766;62.622;17.912;2023-04-28T06:12:04;100870.54;;;5.46;56.84
44351;BME280;62766;62.622;17.912;2023-04-28T06:14:32;100869.97;;;5.48;56.73
44351;BME280;62766;62.622;17.912;2023-04-28T06:17:00;100871.34;;;5.52;56.39
44351;BME280;62766;62.622;17.912;2023-04-28T06:19:29;100875.76;;;5.70;56.39
44351;BME280;62766;62.622;17.912;2023-04-28T06:21:57;100878.87;;;5.70;56.15
44351;BME280;62766;62.622;17.912;2023-04-28T06:24:25;100880.75;;;5.84;55.99
44351;BME280;62766;62.622;17.912;2023-04-28T06:26:54;100880.89;;;5.92;55.55
44351;BME280;62766;62.622;17.912;2023-04-28T06:29:22;100881.32;;;5.81;55.35
44351;BME280;62766;62.622;17.912;2023-04-28T06:31:50;100881.67;;;5.93;55.23
44351;BME280;62766;62.622;17.912;2023-04-28T06:34:19;100889.65;;;5.88;54.60
44351;BME280;62766;62.622;17.912;2023-04-28T06:36:47;100892.30;;;5.87;54.96
44351;BME280;62766;62.622;17.912;2023-04-28T06:39:15;100895.02;;;5.98;54.64
44351;BME280;62766;62.622;17.912;2023-04-28T06:41:44;100893.47;;;6.08;54.70
44351;BME280;62766;62.622;17.912;2023-04-28T06:44:12;100898.70;;;6.15;54.34
44351;BME280;62766;62.622;17.912;2023-04-28T06:46:40;100900.96;;;6.19;54.05
44351;BME280;62766;62.622;17.912;2023-04-28T06:49:09;100902.55;;;6.19;53.78
44351;BME280;62766;62.622;17.912;2023-04-28T06:51:37;100901.46;;;6.26;53.84
44351;BME280;62766;62.622;17.912;2023-04-28T06:54:06;100898.48;;;6.29;53.51
44351;BME280;62766;62.622;17.912;2023-04-28T06:56:35;100899.18;;;6.44;53.43
44351;BME280;62766;62.622;17.912;2023-04-28T06:59:04;100898.11;;;6.69;53.13
44351;BME280;62766;62.622;17.912;2023-04-28T07:01:32;100902.36;;;6.67;52.61
44351;BME280;62766;62.622;17.912;2023-04-28T07:04:00;100900.64;;;6.62;52.51
44351;BME280;62766;62.622;17.912;2023-04-28T07:06:29;100901.54;;;6.74;52.55
44351;BME280;62766;62.622;17.912;2023-04-28T07:08:57;100899.45;;;6.91;52.40
44351;BME280;62766;62.622;17.912;2023-04-28T07:11:25;100899.60;;;7.06;51.93
44351;BME280;62766;62.622;17.912;2023-04-28T07:13:54;100903.93;;;7.10;51.43
44351;BME280;62766;62.622;17.912;2023-04-28T07:16:22;100906.08;;;7.15;51.61
44351;BME280;62766;62.622;17.912;2023-04-28T07:18:50;100908.83;;;7.29;51.54
44351;BME280;62766;62.622;17.912;2023-04-28T07:21:19;100908.44;;;7.41;50.93
44351;BME280;62766;62.622;17.912;2023-04-28T07:23:47;100908.33;;;7.41;50.73
44351;BME280;62766;62.622;17.912;2023-04-28T07:26:15;100907.81;;;7.33;50.34
44351;BME280;62766;62.622;17.912;2023-04-28T07:28:44;100906.31;;;7.52;50.28
44351;BME280;62766;62.622;17.912;2023-04-28T07:31:12;100907.88;;;7.56;50.47
44351;BME280;62766;62.622;17.912;2023-04-28T07:33:40;100907.74;;;7.55;50.30
44351;BME280;62766;62.622;17.912;2023-04-28T07:36:09;100908.52;;;7.61;49.86
44351;BME280;62766;62.622;17.912;2023-04-28T07:38:37;100907.37;;;7.65;50.21
44351;BME280;62766;62.622;17.912;2023-04-28T07:41:06;100908.83;;;7.78;49.78
44351;BME280;62766;62.622;17.912;2023-04-28T07:43:35;100911.85;;;7.76;49.66
44351;BME280;62766;62.622;17.912;2023-04-28T07:46:04;100913.23;;;7.71;49.07
44351;BME280;62766;62.622;17.912;2023-04-28T07:48:32;100914.52;;;7.77;48.85
44351;BME280;62766;62.622;17.912;2023-04-28T07:51:00;100919.04;;;7.65;49.08
44351;BME280;62766;62.622;17.912;2023-04-28T07:53:28;100919.45;;;7.56;49.08
44351;BME280;62766;62.622;17.912;2023-04-28T07:55:57;100918.52;;;7.51;49.33
44351;BME280;62766;62.622;17.912;2023-04-28T07:58:25;100918.56;;;7.35;49.37
44351;BME280;62766;62.622;17.912;2023-04-28T08:00:53;100917.87;;;7.26;49.61
44351;BME280;62766;62.622;17.912;2023-04-28T08:03:22;100921.21;;;7.32;49.91
44351;BME280;62766;62.622;17.912;2023-04-28T08:05:50;100921.11;;;7.44;49.77
44351;BME280;62766;62.622;17.912;2023-04-28T08:08:18;100922.84;;;7.27;50.01
44351;BME280;62766;62.622;17.912;2023-04-28T08:10:47;100924.74;;;7.41;49.97
44351;BME280;62766;62.622;17.912;2023-04-28T08:13:15;100924.12;;;7.61;49.93
44351;BME280;62766;62.622;17.912;2023-04-28T08:15:43;100925.51;;;7.70;49.92
44351;BME280;62766;62.622;17.912;2023-04-28T08:18:11;100923.32;;;7.78;49.43
44351;BME280;62766;62.622;17.912;2023-04-28T08:20:40;100921.78;;;7.76;49.04
44351;BME280;62766;62.622;17.912;2023-04-28T08:23:08;100921.19;;;7.86;48.60
44351;BME280;62766;62.622;17.912;2023-04-28T08:25:36;100920.91;;;7.98;48.69
44351;BME280;62766;62.622;17.912;2023-04-28T08:28:05;100921.94;;;8.05;48.33
44351;BME280;62766;62.622;17.912;2023-04-28T08:30:35;100928.11;;;7.98;48.14
44351;BME280;62766;62.622;17.912;2023-04-28T08:33:03;100930.48;;;7.71;48.17
44351;BME280;62766;62.622;17.912;2023-04-28T08:35:31;100930.14;;;7.40;48.68
44351;BME280;62766;62.622;17.912;2023-04-28T08:38:00;100934.15;;;7.36;49.59
44351;BME280;62766;62.622;17.912;2023-04-28T08:40:28;100933.86;;;7.40;49.56
44351;BME280;62766;62.622;17.912;2023-04-28T08:42:58;100933.62;;;7.71;49.25
44351;BME280;62766;62.622;17.912;2023-04-28T08:45:29;100938.23;;;7.71;48.67
44351;BME280;62766;62.622;17.912;2023-04-28T08:47:59;100936.87;;;7.56;49.35
44351;BME280;62766;62.622;17.912;2023-04-28T08:50:30;100936.96;;;7.73;49.31
44351;BME280;62766;62.622;17.912;2023-04-28T08:53:03;100938.74;;;7.80;49.22
44351;BME280;62766;62.622;17.912;2023-04-28T08:55:33;100937.32;;;7.90;49.27
44351;BME280;62766;62.622;17.912;2023-04-28T08:58:02;100938.34;;;7.99;48.35
44351;BME280;62766;62.622;17.912;2023-04-28T09:00:36;100938.68;;;7.88;48.42
44351;BME280;62766;62.622;17.912;2023-04-28T09:03:04;100940.48;;;7.76;47.90
44351;BME280;62766;62.622;17.912;2023-04-28T09:05:32;100941.77;;;7.73;47.42
44351;BME280;62766;62.622;17.912;2023-04-28T09:08:01;100944.68;;;7.73;48.23
44351;BME280;62766;62.622;17.912;2023-04-28T09:10:29;100947.10;;;7.67;48.22
44351;BME280;62766;62.622;17.912;2023-04-28T09:12:57;100945.70;;;7.86;48.02
44351;BME280;62766;62.622;17.912;2023-04-28T09:15:29;100941.63;;;7.89;48.63
44351;BME280;62766;62.622;17.912;2023-04-28T09:17:57;100941.93;;;8.03;47.79
44351;BME280;62766;62.622;17.912;2023-04-28T09:20:27;100943.17;;;8.21;47.98
44351;BME280;62766;62.622;17.912;2023-04-28T09:23:12;100941.68;;;8.21;47.43
44351;BME280;62766;62.622;17.912;2023-04-28T09:25:40;100942.43;;;8.42;46.89
44351;BME280;62766;62.622;17.912;2023-04-28T09:28:22;100938.00;;;8.39;46.02
44351;BME280;62766;62.622;17.912;2023-04-28T09:30:50;100932.40;;;8.56;46.22
44351;BME280;62766;62.622;17.912;2023-04-28T09:33:19;100929.52;;;8.51;46.46
44351;BME280;62766;62.622;17.912;2023-04-28T09:35:47;100925.06;;;8.62;45.97
44351;BME280;62766;62.622;17.912;2023-04-28T09:38:16;100925.15;;;9.06;45.45
44351;BME280;62766;62.622;17.912;2023-04-28T09:40:55;100920.19;;;9.24;45.15
44351;BME280;62766;62.622;17.912;2023-04-28T09:43:25;100917.85;;;9.25;44.70
44351;BME280;62766;62.622;17.912;2023-04-28T09:45:55;100918.18;;;9.28;44.88
44351;BME280;62766;62.622;17.912;2023-04-28T09:48:27;100917.33;;;9.53;44.47
44351;BME280;62766;62.622;17.912;2023-04-28T09:50:56;100911.58;;;9.64;44.30
44351;BME280;62766;62.622;17.912;2023-04-28T09:53:25;100909.36;;;9.56;44.63
44351;BME280;62766;62.622;17.912;2023-04-28T09:55:54;100911.22;;;9.30;44.51
44351;BME280;62766;62.622;17.912;2023-04-28T09:58:24;100914.45;;;9.21;44.31
44351;BME280;62766;62.622;17.912;2023-04-28T10:03:20;100917.63;;;8.92;44.00
44351;BME280;62766;62.622;17.912;2023-04-28T10:05:50;100916.74;;;9.03;44.36
44351;BME280;62766;62.622;17.912;2023-04-28T10:08:19;100911.40;;;9.16;44.07
44351;BME280;62766;62.622;17.912;2023-04-28T10:10:49;100907.16;;;9.21;44.36
44351;BME280;62766;62.622;17.912;2023-04-28T10:13:17;100908.31;;;9.40;44.73
44351;BME280;62766;62.622;17.912;2023-04-28T10:15:47;100908.75;;;9.54;44.24
44351;BME280;62766;62.622;17.912;2023-04-28T10:18:16;100911.16;;;9.46;42.84
44351;BME280;62766;62.622;17.912;2023-04-28T10:20:47;100907.43;;;9.40;43.24
44351;BME280;62766;62.622;17.912;2023-04-28T10:23:37;100908.94;;;9.46;43.50
44351;BME280;62766;62.622;17.912;2023-04-28T10:26:13;100907.39;;;9.09;43.64
44351;BME280;62766;62.622;17.912;2023-04-28T10:28:45;100909.23;;;9.09;44.18
44351;BME280;62766;62.622;17.912;2023-04-28T10:31:15;100909.72;;;9.31;44.20
44351;BME280;62766;62.622;17.912;2023-04-28T10:33:45;100909.36;;;9.55;43.89
44351;BME280;62766;62.622;17.912;2023-04-28T10:36:46;100907.95;;;9.57;43.70
44351;BME280;62766;62.622;17.912;2023-04-28T10:39:15;100906.71;;;9.69;42.93
44351;BME280;62766;62.622;17.912;2023-04-28T10:41:45;100904.81;;;9.69;43.28
44351;BME280;62766;62.622;17.912;2023-04-28T10:44:47;100904.60;;;9.96;43.42
44351;BME280;62766;62.622;17.912;2023-04-28T10:47:15;100906.93;;;10.26;43.31
44351;BME280;62766;62.622;17.912;2023-04-28T10:50:16;100910.34;;;10.60;43.73
44351;BME280;62766;62.622;17.912;2023-04-28T10:52:47;100908.08;;;10.47;43.12
44351;BME280;62766;62.622;17.912;2023-04-28T10:55:33;100909.04;;;10.23;42.18
44351;BME280;62766;62.622;17.912;2023-04-28T10:58:34;100911.53;;;10.09;42.95
44351;BME280;62766;62.622;17.912;2023-04-28T11:01:36;100915.19;;;10.39;43.46
44351;BME280;62766;62.622;17.912;2023-04-28T11:04:06;100916.45;;;9.88;43.95
44351;BME280;62766;62.622;17.912;2023-04-28T11:06:36;100915.61;;;9.76;44.20
44351;BME280;62766;62.622;17.912;2023-04-28T11:09:47;100917.45;;;9.56;44.73
44351;BME280;62766;62.622;17.912;2023-04-28T11:12:16;100926.43;;;9.15;44.83
44351;BME280;62766;62.622;17.912;2023-04-28T11:14:43;100925.69;;;8.85;45.20
44351;BME280;62766;62.622;17.912;2023-04-28T11:17:12;100927.45;;;8.74;45.85
44351;BME280;62766;62.622;17.912;2023-04-28T11:19:43;100929.71;;;8.69;45.79
44351;BME280;62766;62.622;17.912;2023-04-28T11:22:15;100930.88;;;8.44;46.03
44351;BME280;62766;62.622;17.912;2023-04-28T11:24:54;100936.97;;;8.22;46.72
44351;BME280;62766;62.622;17.912;2023-04-28T11:27:23;100937.54;;;7.78;47.98
44351;BME280;62766;62.622;17.912;2023-04-28T11:29:51;100937.68;;;7.47;48.78
44351;BME280;62766;62.622;17.912;2023-04-28T11:32:25;100938.10;;;7.31;49.45
44351;BME280;62766;62.622;17.912;2023-04-28T11:34:55;100947.42;;;7.20;49.88
44351;BME280;62766;62.622;17.912;2023-04-28T11:37:23;100950.63;;;7.06;50.14
44351;BME280;62766;62.622;17.912;2023-04-28T11:39:51;100954.75;;;7.06;50.74
44351;BME280;62766;62.622;17.912;2023-04-28T11:42:19;100956.92;;;7.20;51.03
44351;BME280;62766;62.622;17.912;2023-04-28T11:44:49;100959.65;;;7.06;50.81
44351;BME280;62766;62.622;17.912;2023-04-28T11:47:28;100963.46;;;7.04;50.76
44351;BME280;62766;62.622;17.912;2023-04-28T11:49:56;100963.29;;;7.15;50.91
44351;BME280;62766;62.622;17.912;2023-04-28T11:52:25;100965.80;;;7.12;50.92
44351;BME280;62766;62.622;17.912;2023-04-28T11:54:53;100970.44;;;7.17;51.03
44351;BME280;62766;62.622;17.912;2023-04-28T11:57:21;100972.75;;;7.14;51.12
44351;BME280;62766;62.622;17.912;2023-04-28T11:59:50;100973.32;;;6.92;51.07
44351;BME280;62766;62.622;17.912;2023-04-28T12:02:24;100973.46;;;6.88;50.86
44351;BME280;62766;62.622;17.912;2023-04-28T12:04:54;100976.26;;;6.87;50.99
44351;BME280;62766;62.622;17.912;2023-04-28T12:07:22;100975.23;;;7.05;51.51
44351;BME280;62766;62.622;17.912;2023-04-28T12:10:10;100978.31;;;7.09;51.23
44351;BME280;62766;62.622;17.912;2023-04-28T12:12:40;100982.72;;;7.12;51.43
44351;BME280;62766;62.622;17.912;2023-04-28T12:15:09;100983.86;;;7.10;51.68
44351;BME280;62766;62.622;17.912;2023-04-28T12:17:38;100985.80;;;7.04;51.60
44351;BME280;62766;62.622;17.912;2023-04-28T12:20:09;100985.67;;;7.15;52.00
44351;BME280;62766;62.622;17.912;2023-04-28T12:22:45;100986.67;;;7.15;51.87
44351;BME280;62766;62.622;17.912;2023-04-28T12:25:16;100983.53;;;7.30;51.96
44351;BME280;62766;62.622;17.912;2023-04-28T12:27:58;100983.48;;;7.40;51.97
44351;BME280;62766;62.622;17.912;2023-04-28T12:30:27;100986.71;;;7.32;51.34
44351;BME280;62766;62.622;17.912;2023-04-28T12:32:56;100987.33;;;7.58;51.30
44351;BME280;62766;62.622;17.912;2023-04-28T12:35:26;100986.01;;;7.56;50.76
44351;BME280;62766;62.622;17.912;2023-04-28T12:37:55;100985.01;;;7.48;51.63
44351;BME280;62766;62.622;17.912;2023-04-28T12:40:23;100989.98;;;7.65;51.35
44351;BME280;62766;62.622;17.912;2023-04-28T12:42:52;100989.25;;;7.67;50.63
44351;BME280;62766;62.622;17.912;2023-04-28T12:45:20;100990.86;;;7.56;50.14
44351;BME280;62766;62.622;17.912;2023-04-28T12:47:48;100991.35;;;7.37;50.82
44351;BME280;62766;62.622;17.912;2023-04-28T12:50:16;100993.33;;;7.19;51.49
44351;BME280;62766;62.622;17.912;2023-04-28T12:52:45;100995.60;;;6.82;51.80
44351;BME280;62766;62.622;17.912;2023-04-28T12:55:14;100995.91;;;6.53;52.55
44351;BME280;62766;62.622;17.912;2023-04-28T12:57:43;100995.53;;;6.38;52.84
44351;BME280;62766;62.622;17.912;2023-04-28T13:00:13;100990.40;;;6.30;53.60
44351;BME280;62766;62.622;17.912;2023-04-28T13:02:42;100985.74;;;6.21;53.89
44351;BME280;62766;62.622;17.912;2023-04-28T13:05:10;100982.86;;;6.06;54.23
44351;BME280;62766;62.622;17.912;2023-04-28T13:07:38;100977.98;;;6.00;54.43
44351;BME280;62766;62.622;17.912;2023-04-28T13:10:08;100976.38;;;6.02;54.88